sensor_id;sensor_type;location;lat;lon;timestamp;P1;durP1;ratioP1;P2;durP2;ratioP2
56517;SDS011;42419;48.760;2.322;2023-01-23T00:01:35;3.40;;;3.10;;
56517;SDS011;42419;48.760;2.322;2023-01-23T00:04:00;3.47;;;3.27;;
56517;SDS011;42419;48.760;2.322;2023-01-23T00:06:26;4.30;;;4.00;;
56517;SDS011;42419;48.760;2.322;2023-01-23T00:08:52;3.70;;;3.40;;
56517;SDS011;42419;48.760;2.322;2023-01-23T00:11:21;3.77;;;3.47;;
56517;SDS011;42419;48.760;2.322;2023-01-23T00:13:49;3.90;;;3.60;;
56517;SDS011;42419;48.760;2.322;2023-01-23T00:16:16;3.73;;;3.33;;
56517;SDS011;42419;48.760;2.322;2023-01-23T00:18:44;4.20;;;3.50;;
56517;SDS011;42419;48.760;2.322;2023-01-23T00:21:10;4.07;;;3.77;;
56517;SDS011;42419;48.760;2.322;2023-01-23T00:23:40;3.70;;;3.40;;
56517;SDS011;42419;48.760;2.322;2023-01-23T00:26:07;4.20;;;3.90;;
56517;SDS011;42419;48.760;2.322;2023-01-23T00:28:36;3.47;;;3.17;;
56517;SDS011;42419;48.760;2.322;2023-01-23T00:31:02;3.60;;;3.37;;
56517;SDS011;42419;48.760;2.322;2023-01-23T00:33:29;3.83;;;3.50;;
56517;SDS011;42419;48.760;2.322;2023-01-23T00:35:54;3.70;;;3.37;;
56517;SDS011;42419;48.760;2.322;2023-01-23T00:38:19;3.60;;;3.33;;
56517;SDS011;42419;48.760;2.322;2023-01-23T00:40:45;4.20;;;3.80;;
56517;SDS011;42419;48.760;2.322;2023-01-23T00:43:10;3.70;;;3.40;;
56517;SDS011;42419;48.760;2.322;2023-01-23T00:45:35;3.80;;;3.50;;
56517;SDS011;42419;48.760;2.322;2023-01-23T00:48:02;3.30;;;3.00;;
56517;SDS011;42419;48.760;2.322;2023-01-23T00:50:28;3.57;;;3.27;;
56517;SDS011;42419;48.760;2.322;2023-01-23T00:52:53;3.77;;;3.50;;
56517;SDS011;42419;48.760;2.322;2023-01-23T00:55:18;3.90;;;3.60;;
56517;SDS011;42419;48.760;2.322;2023-01-23T00:57:44;4.17;;;3.77;;
56517;SDS011;42419;48.760;2.322;2023-01-23T01:00:09;3.80;;;3.50;;
56517;SDS011;42419;48.760;2.322;2023-01-23T01:02:35;3.73;;;3.43;;
56517;SDS011;42419;48.760;2.322;2023-01-23T01:05:00;4.17;;;3.87;;
56517;SDS011;42419;48.760;2.322;2023-01-23T01:07:25;3.87;;;3.57;;
56517;SDS011;42419;48.760;2.322;2023-01-23T01:09:51;4.50;;;4.10;;
56517;SDS011;42419;48.760;2.322;2023-01-23T01:12:16;4.03;;;3.73;;
56517;SDS011;42419;48.760;2.322;2023-01-23T01:14:43;4.00;;;3.70;;
56517;SDS011;42419;48.760;2.322;2023-01-23T01:17:08;4.27;;;3.97;;
56517;SDS011;42419;48.760;2.322;2023-01-23T01:19:34;3.73;;;3.53;;
56517;SDS011;42419;48.760;2.322;2023-01-23T01:21:59;4.13;;;3.83;;
56517;SDS011;42419;48.760;2.322;2023-01-23T01:24:24;3.73;;;3.50;;
56517;SDS011;42419;48.760;2.322;2023-01-23T01:26:50;4.50;;;4.10;;
56517;SDS011;42419;48.760;2.322;2023-01-23T01:29:15;3.70;;;3.40;;
56517;SDS011;42419;48.760;2.322;2023-01-23T01:31:41;4.37;;;3.97;;
56517;SDS011;42419;48.760;2.322;2023-01-23T01:34:06;4.40;;;4.00;;
56517;SDS011;42419;48.760;2.322;2023-01-23T01:36:32;3.87;;;3.60;;
56517;SDS011;42419;48.760;2.322;2023-01-23T01:38:58;3.93;;;3.63;;
56517;SDS011;42419;48.760;2.322;2023-01-23T01:41:23;4.10;;;3.80;;
56517;SDS011;42419;48.760;2.322;2023-01-23T01:43:49;3.63;;;3.43;;
56517;SDS011;42419;48.760;2.322;2023-01-23T01:46:22;4.27;;;3.97;;
56517;SDS011;42419;48.760;2.322;2023-01-23T01:51:33;3.77;;;3.53;;
56517;SDS011;42419;48.760;2.322;2023-01-23T01:56:43;3.73;;;3.43;;
56517;SDS011;42419;48.760;2.322;2023-01-23T01:59:14;4.20;;;3.90;;
56517;SDS011;42419;48.760;2.322;2023-01-23T02:01:42;3.80;;;3.60;;
56517;SDS011;42419;48.760;2.322;2023-01-23T02:04:10;4.17;;;3.87;;
56517;SDS011;42419;48.760;2.322;2023-01-23T02:06:35;4.23;;;3.93;;
56517;SDS011;42419;48.760;2.322;2023-01-23T02:11:45;4.30;;;4.00;;
56517;SDS011;42419;48.760;2.322;2023-01-23T02:14:11;4.30;;;4.00;;
56517;SDS011;42419;48.760;2.322;2023-01-23T02:16:41;4.20;;;3.90;;
56517;SDS011;42419;48.760;2.322;2023-01-23T02:19:27;4.03;;;3.73;;
56517;SDS011;42419;48.760;2.322;2023-01-23T02:22:08;4.00;;;3.70;;
56517;SDS011;42419;48.760;2.322;2023-01-23T02:24:46;4.27;;;3.97;;
56517;SDS011;42419;48.760;2.322;2023-01-23T02:27:22;3.93;;;3.63;;
56517;SDS011;42419;48.760;2.322;2023-01-23T02:29:47;4.20;;;3.90;;
56517;SDS011;42419;48.760;2.322;2023-01-23T02:32:12;4.00;;;3.70;;
56517;SDS011;42419;48.760;2.322;2023-01-23T02:34:38;4.50;;;4.20;;
56517;SDS011;42419;48.760;2.322;2023-01-23T02:37:04;4.63;;;4.30;;
56517;SDS011;42419;48.760;2.322;2023-01-23T02:39:31;4.60;;;4.30;;
56517;SDS011;42419;48.760;2.322;2023-01-23T02:41:57;3.73;;;3.47;;
56517;SDS011;42419;48.760;2.322;2023-01-23T02:44:28;3.90;;;3.60;;
56517;SDS011;42419;48.760;2.322;2023-01-23T02:47:04;4.10;;;3.80;;
56517;SDS011;42419;48.760;2.322;2023-01-23T02:49:35;3.50;;;3.30;;
56517;SDS011;42419;48.760;2.322;2023-01-23T02:52:01;4.50;;;4.10;;
56517;SDS011;42419;48.760;2.322;2023-01-23T02:54:27;4.40;;;4.10;;
56517;SDS011;42419;48.760;2.322;2023-01-23T02:56:52;3.90;;;3.70;;
56517;SDS011;42419;48.760;2.322;2023-01-23T02:59:18;4.20;;;3.90;;
56517;SDS011;42419;48.760;2.322;2023-01-23T03:02:02;4.30;;;4.00;;
56517;SDS011;42419;48.760;2.322;2023-01-23T03:04:30;4.13;;;3.83;;
56517;SDS011;42419;48.760;2.322;2023-01-23T03:06:55;4.23;;;3.93;;
56517;SDS011;42419;48.760;2.322;2023-01-23T03:09:20;4.43;;;3.90;;
56517;SDS011;42419;48.760;2.322;2023-01-23T03:11:46;4.13;;;3.83;;
56517;SDS011;42419;48.760;2.322;2023-01-23T03:14:13;4.30;;;4.00;;
56517;SDS011;42419;48.760;2.322;2023-01-23T03:16:40;4.60;;;4.30;;
56517;SDS011;42419;48.760;2.322;2023-01-23T03:19:07;4.60;;;4.30;;
56517;SDS011;42419;48.760;2.322;2023-01-23T03:21:37;3.60;;;3.40;;
56517;SDS011;42419;48.760;2.322;2023-01-23T03:24:05;4.30;;;4.00;;
56517;SDS011;42419;48.760;2.322;2023-01-23T03:26:34;4.27;;;4.00;;
56517;SDS011;42419;48.760;2.322;2023-01-23T03:29:01;4.13;;;3.83;;
56517;SDS011;42419;48.760;2.322;2023-01-23T03:31:45;4.00;;;3.70;;
56517;SDS011;42419;48.760;2.322;2023-01-23T03:34:10;4.10;;;3.90;;
56517;SDS011;42419;48.760;2.322;2023-01-23T03:36:36;4.50;;;4.20;;
56517;SDS011;42419;48.760;2.322;2023-01-23T03:39:04;4.50;;;4.20;;
56517;SDS011;42419;48.760;2.322;2023-01-23T03:41:48;4.40;;;4.10;;
56517;SDS011;42419;48.760;2.322;2023-01-23T03:44:15;4.53;;;4.23;;
56517;SDS011;42419;48.760;2.322;2023-01-23T03:46:43;4.70;;;4.40;;
56517;SDS011;42419;48.760;2.322;2023-01-23T03:49:08;4.57;;;4.27;;
56517;SDS011;42419;48.760;2.322;2023-01-23T03:51:34;3.73;;;3.53;;
56517;SDS011;42419;48.760;2.322;2023-01-23T03:53:59;4.43;;;4.13;;
56517;SDS011;42419;48.760;2.322;2023-01-23T03:56:24;4.67;;;4.37;;
56517;SDS011;42419;48.760;2.322;2023-01-23T03:58:49;3.93;;;3.60;;
56517;SDS011;42419;48.760;2.322;2023-01-23T04:01:15;4.03;;;3.73;;
56517;SDS011;42419;48.760;2.322;2023-01-23T04:03:40;4.37;;;4.07;;
56517;SDS011;42419;48.760;2.322;2023-01-23T04:06:06;4.70;;;4.30;;
56517;SDS011;42419;48.760;2.322;2023-01-23T04:08:31;4.50;;;4.20;;
56517;SDS011;42419;48.760;2.322;2023-01-23T04:11:03;4.37;;;4.07;;
56517;SDS011;42419;48.760;2.322;2023-01-23T04:13:30;4.50;;;4.20;;
56517;SDS011;42419;48.760;2.322;2023-01-23T04:15:55;4.23;;;3.93;;
56517;SDS011;42419;48.760;2.322;2023-01-23T04:18:21;4.70;;;4.40;;
56517;SDS011;42419;48.760;2.322;2023-01-23T04:20:46;5.00;;;4.70;;
56517;SDS011;42419;48.760;2.322;2023-01-23T04:23:11;4.87;;;4.47;;
56517;SDS011;42419;48.760;2.322;2023-01-23T04:25:37;4.17;;;3.87;;
56517;SDS011;42419;48.760;2.322;2023-01-23T04:28:03;4.20;;;3.90;;
56517;SDS011;42419;48.760;2.322;2023-01-23T04:30:29;4.13;;;3.83;;
56517;SDS011;42419;48.760;2.322;2023-01-23T04:32:54;4.20;;;3.90;;
56517;SDS011;42419;48.760;2.322;2023-01-23T04:35:19;4.30;;;4.03;;
56517;SDS011;42419;48.760;2.322;2023-01-23T04:37:45;4.30;;;4.00;;
56517;SDS011;42419;48.760;2.322;2023-01-23T04:40:10;4.13;;;3.83;;
56517;SDS011;42419;48.760;2.322;2023-01-23T04:42:36;4.57;;;4.27;;
56517;SDS011;42419;48.760;2.322;2023-01-23T04:45:01;4.60;;;4.30;;
56517;SDS011;42419;48.760;2.322;2023-01-23T04:47:26;4.33;;;4.03;;
56517;SDS011;42419;48.760;2.322;2023-01-23T04:49:52;4.67;;;4.27;;
56517;SDS011;42419;48.760;2.322;2023-01-23T04:52:17;4.83;;;4.20;;
56517;SDS011;42419;48.760;2.322;2023-01-23T04:54:42;4.53;;;4.23;;
56517;SDS011;42419;48.760;2.322;2023-01-23T04:57:07;5.30;;;4.90;;
56517;SDS011;42419;48.760;2.322;2023-01-23T04:59:33;4.47;;;4.17;;
56517;SDS011;42419;48.760;2.322;2023-01-23T05:01:58;4.53;;;4.23;;
56517;SDS011;42419;48.760;2.322;2023-01-23T05:04:26;4.47;;;4.17;;
56517;SDS011;42419;48.760;2.322;2023-01-23T05:06:51;4.73;;;4.40;;
56517;SDS011;42419;48.760;2.322;2023-01-23T05:09:17;4.30;;;4.00;;
56517;SDS011;42419;48.760;2.322;2023-01-23T05:11:42;4.40;;;4.10;;
56517;SDS011;42419;48.760;2.322;2023-01-23T05:14:07;4.70;;;4.40;;
56517;SDS011;42419;48.760;2.322;2023-01-23T05:16:33;4.40;;;4.10;;
56517;SDS011;42419;48.760;2.322;2023-01-23T05:18:58;4.73;;;4.30;;
56517;SDS011;42419;48.760;2.322;2023-01-23T05:21:23;4.80;;;4.50;;
56517;SDS011;42419;48.760;2.322;2023-01-23T05:23:49;4.40;;;4.10;;
56517;SDS011;42419;48.760;2.322;2023-01-23T05:26:14;4.60;;;4.30;;
56517;SDS011;42419;48.760;2.322;2023-01-23T05:28:42;4.43;;;4.13;;
56517;SDS011;42419;48.760;2.322;2023-01-23T05:31:07;4.80;;;4.50;;
56517;SDS011;42419;48.760;2.322;2023-01-23T05:33:33;4.77;;;4.47;;
56517;SDS011;42419;48.760;2.322;2023-01-23T05:35:59;4.50;;;4.20;;
56517;SDS011;42419;48.760;2.322;2023-01-23T05:38:25;3.77;;;3.57;;
56517;SDS011;42419;48.760;2.322;2023-01-23T05:40:50;4.93;;;4.63;;
56517;SDS011;42419;48.760;2.322;2023-01-23T05:43:16;4.33;;;4.03;;
56517;SDS011;42419;48.760;2.322;2023-01-23T05:45:41;5.10;;;4.70;;
56517;SDS011;42419;48.760;2.322;2023-01-23T05:48:06;5.33;;;4.93;;
56517;SDS011;42419;48.760;2.322;2023-01-23T05:50:35;4.50;;;4.20;;
56517;SDS011;42419;48.760;2.322;2023-01-23T05:53:00;4.93;;;4.63;;
56517;SDS011;42419;48.760;2.322;2023-01-23T05:55:25;4.47;;;4.20;;
56517;SDS011;42419;48.760;2.322;2023-01-23T05:57:51;4.37;;;4.07;;
56517;SDS011;42419;48.760;2.322;2023-01-23T06:00:16;4.60;;;4.30;;
56517;SDS011;42419;48.760;2.322;2023-01-23T06:02:42;4.50;;;4.20;;
56517;SDS011;42419;48.760;2.322;2023-01-23T06:05:08;5.13;;;4.80;;
56517;SDS011;42419;48.760;2.322;2023-01-23T06:07:33;4.23;;;3.93;;
56517;SDS011;42419;48.760;2.322;2023-01-23T06:09:59;4.27;;;3.90;;
56517;SDS011;42419;48.760;2.322;2023-01-23T06:12:24;4.70;;;4.30;;
56517;SDS011;42419;48.760;2.322;2023-01-23T06:14:50;4.57;;;4.17;;
56517;SDS011;42419;48.760;2.322;2023-01-23T06:17:15;4.90;;;4.53;;
56517;SDS011;42419;48.760;2.322;2023-01-23T06:19:40;4.70;;;4.40;;
56517;SDS011;42419;48.760;2.322;2023-01-23T06:22:06;4.43;;;4.13;;
56517;SDS011;42419;48.760;2.322;2023-01-23T06:24:31;4.73;;;4.33;;
56517;SDS011;42419;48.760;2.322;2023-01-23T06:26:57;4.97;;;4.67;;
56517;SDS011;42419;48.760;2.322;2023-01-23T06:29:22;4.60;;;4.30;;
56517;SDS011;42419;48.760;2.322;2023-01-23T06:31:47;5.30;;;4.90;;
56517;SDS011;42419;48.760;2.322;2023-01-23T06:34:13;4.93;;;4.63;;
56517;SDS011;42419;48.760;2.322;2023-01-23T06:36:39;4.60;;;4.30;;
56517;SDS011;42419;48.760;2.322;2023-01-23T06:39:05;5.10;;;4.70;;
56517;SDS011;42419;48.760;2.322;2023-01-23T06:41:32;4.60;;;4.30;;
56517;SDS011;42419;48.760;2.322;2023-01-23T06:43:57;5.00;;;4.60;;
56517;SDS011;42419;48.760;2.322;2023-01-23T06:46:22;4.33;;;4.03;;
56517;SDS011;42419;48.760;2.322;2023-01-23T06:48:48;5.10;;;4.13;;
56517;SDS011;42419;48.760;2.322;2023-01-23T06:51:13;4.73;;;4.33;;
56517;SDS011;42419;48.760;2.322;2023-01-23T06:53:39;5.17;;;4.67;;
56517;SDS011;42419;48.760;2.322;2023-01-23T06:56:05;4.70;;;4.40;;
56517;SDS011;42419;48.760;2.322;2023-01-23T06:58:31;4.57;;;4.27;;
56517;SDS011;42419;48.760;2.322;2023-01-23T07:00:57;4.30;;;4.00;;
56517;SDS011;42419;48.760;2.322;2023-01-23T07:03:23;4.30;;;4.00;;
56517;SDS011;42419;48.760;2.322;2023-01-23T07:05:48;4.63;;;4.33;;
56517;SDS011;42419;48.760;2.322;2023-01-23T07:08:14;4.40;;;4.10;;
56517;SDS011;42419;48.760;2.322;2023-01-23T07:10:39;5.10;;;4.60;;
56517;SDS011;42419;48.760;2.322;2023-01-23T07:13:05;4.70;;;4.40;;
56517;SDS011;42419;48.760;2.322;2023-01-23T07:15:33;4.70;;;4.30;;
56517;SDS011;42419;48.760;2.322;2023-01-23T07:17:59;4.70;;;4.13;;
56517;SDS011;42419;48.760;2.322;2023-01-23T07:20:25;4.60;;;4.30;;
56517;SDS011;42419;48.760;2.322;2023-01-23T07:22:54;4.70;;;4.30;;
56517;SDS011;42419;48.760;2.322;2023-01-23T07:25:20;4.30;;;4.00;;
56517;SDS011;42419;48.760;2.322;2023-01-23T07:27:46;4.00;;;3.70;;
56517;SDS011;42419;48.760;2.322;2023-01-23T07:30:12;4.93;;;4.63;;
56517;SDS011;42419;48.760;2.322;2023-01-23T07:32:37;4.77;;;4.47;;
56517;SDS011;42419;48.760;2.322;2023-01-23T07:35:06;5.20;;;4.63;;
56517;SDS011;42419;48.760;2.322;2023-01-23T07:37:32;4.90;;;4.60;;
56517;SDS011;42419;48.760;2.322;2023-01-23T07:39:57;4.50;;;4.20;;
56517;SDS011;42419;48.760;2.322;2023-01-23T07:42:23;4.20;;;3.90;;
56517;SDS011;42419;48.760;2.322;2023-01-23T07:44:48;4.47;;;4.07;;
56517;SDS011;42419;48.760;2.322;2023-01-23T07:47:13;4.90;;;4.50;;
56517;SDS011;42419;48.760;2.322;2023-01-23T07:49:39;6.30;;;4.20;;
56517;SDS011;42419;48.760;2.322;2023-01-23T07:52:04;4.60;;;4.03;;
56517;SDS011;42419;48.760;2.322;2023-01-23T07:54:29;4.47;;;4.17;;
56517;SDS011;42419;48.760;2.322;2023-01-23T07:56:55;4.20;;;3.90;;
56517;SDS011;42419;48.760;2.322;2023-01-23T07:59:20;3.97;;;3.67;;
56517;SDS011;42419;48.760;2.322;2023-01-23T08:01:46;4.10;;;3.83;;
56517;SDS011;42419;48.760;2.322;2023-01-23T08:04:12;4.47;;;4.17;;
56517;SDS011;42419;48.760;2.322;2023-01-23T08:06:38;4.30;;;4.00;;
56517;SDS011;42419;48.760;2.322;2023-01-23T08:09:06;4.10;;;3.80;;
56517;SDS011;42419;48.760;2.322;2023-01-23T08:11:31;4.33;;;4.03;;
56517;SDS011;42419;48.760;2.322;2023-01-23T08:13:57;4.60;;;4.20;;
56517;SDS011;42419;48.760;2.322;2023-01-23T08:16:22;4.43;;;4.03;;
56517;SDS011;42419;48.760;2.322;2023-01-23T08:18:48;4.40;;;4.03;;
56517;SDS011;42419;48.760;2.322;2023-01-23T08:21:13;4.60;;;4.30;;
56517;SDS011;42419;48.760;2.322;2023-01-23T08:23:38;6.33;;;4.70;;
56517;SDS011;42419;48.760;2.322;2023-01-23T08:26:05;5.13;;;4.63;;
56517;SDS011;42419;48.760;2.322;2023-01-23T08:28:32;4.77;;;4.37;;
56517;SDS011;42419;48.760;2.322;2023-01-23T08:31:01;5.10;;;4.70;;
56517;SDS011;42419;48.760;2.322;2023-01-23T08:33:28;4.90;;;4.50;;
56517;SDS011;42419;48.760;2.322;2023-01-23T08:35:55;4.10;;;3.80;;
56517;SDS011;42419;48.760;2.322;2023-01-23T08:38:22;6.73;;;6.13;;
56517;SDS011;42419;48.760;2.322;2023-01-23T08:40:49;4.73;;;4.43;;
56517;SDS011;42419;48.760;2.322;2023-01-23T08:43:16;5.03;;;4.30;;
56517;SDS011;42419;48.760;2.322;2023-01-23T08:45:46;4.73;;;4.33;;
56517;SDS011;42419;48.760;2.322;2023-01-23T08:48:13;4.30;;;4.00;;
56517;SDS011;42419;48.760;2.322;2023-01-23T08:50:38;5.13;;;4.80;;
56517;SDS011;42419;48.760;2.322;2023-01-23T08:53:04;7.50;;;4.50;;
56517;SDS011;42419;48.760;2.322;2023-01-23T08:55:29;5.33;;;4.93;;
56517;SDS011;42419;48.760;2.322;2023-01-23T08:57:56;5.23;;;4.73;;
56517;SDS011;42419;48.760;2.322;2023-01-23T09:00:22;5.33;;;4.70;;
56517;SDS011;42419;48.760;2.322;2023-01-23T09:02:47;5.23;;;4.83;;
56517;SDS011;42419;48.760;2.322;2023-01-23T09:05:13;7.20;;;5.20;;
56517;SDS011;42419;48.760;2.322;2023-01-23T09:07:38;5.30;;;4.90;;
56517;SDS011;42419;48.760;2.322;2023-01-23T09:10:05;4.97;;;4.57;;
56517;SDS011;42419;48.760;2.322;2023-01-23T09:12:31;5.10;;;4.70;;
56517;SDS011;42419;48.760;2.322;2023-01-23T09:14:56;5.50;;;4.73;;
56517;SDS011;42419;48.760;2.322;2023-01-23T09:17:22;6.20;;;5.60;;
56517;SDS011;42419;48.760;2.322;2023-01-23T09:19:48;5.83;;;5.27;;
56517;SDS011;42419;48.760;2.322;2023-01-23T09:22:13;5.60;;;5.10;;
56517;SDS011;42419;48.760;2.322;2023-01-23T09:24:39;5.43;;;5.03;;
56517;SDS011;42419;48.760;2.322;2023-01-23T09:27:05;7.00;;;5.57;;
56517;SDS011;42419;48.760;2.322;2023-01-23T09:29:30;6.63;;;5.40;;
56517;SDS011;42419;48.760;2.322;2023-01-23T09:31:55;8.03;;;4.87;;
56517;SDS011;42419;48.760;2.322;2023-01-23T09:34:22;5.33;;;4.77;;
56517;SDS011;42419;48.760;2.322;2023-01-23T09:36:47;6.50;;;4.53;;
56517;SDS011;42419;48.760;2.322;2023-01-23T09:39:13;6.43;;;5.13;;
56517;SDS011;42419;48.760;2.322;2023-01-23T09:41:38;5.13;;;4.47;;
56517;SDS011;42419;48.760;2.322;2023-01-23T09:44:06;5.30;;;4.80;;
56517;SDS011;42419;48.760;2.322;2023-01-23T09:51:59;6.07;;;5.13;;
56517;SDS011;42419;48.760;2.322;2023-01-23T09:54:45;5.60;;;4.60;;
56517;SDS011;42419;48.760;2.322;2023-01-23T09:57:22;4.97;;;4.47;;
56517;SDS011;42419;48.760;2.322;2023-01-23T10:00:00;5.03;;;4.63;;
56517;SDS011;42419;48.760;2.322;2023-01-23T10:02:36;5.63;;;5.07;;
56517;SDS011;42419;48.760;2.322;2023-01-23T10:05:04;5.77;;;5.30;;
56517;SDS011;42419;48.760;2.322;2023-01-23T10:13:17;5.90;;;5.30;;
56517;SDS011;42419;48.760;2.322;2023-01-23T10:15:58;5.13;;;4.73;;
56517;SDS011;42419;48.760;2.322;2023-01-23T10:19:01;5.80;;;5.30;;
56517;SDS011;42419;48.760;2.322;2023-01-23T10:21:38;5.47;;;5.00;;
56517;SDS011;42419;48.760;2.322;2023-01-23T10:27:00;5.70;;;5.20;;
56517;SDS011;42419;48.760;2.322;2023-01-23T10:29:37;4.90;;;4.40;;
56517;SDS011;42419;48.760;2.322;2023-01-23T10:32:23;4.97;;;4.57;;
56517;SDS011;42419;48.760;2.322;2023-01-23T10:34:57;5.53;;;5.03;;
56517;SDS011;42419;48.760;2.322;2023-01-23T10:37:44;5.17;;;4.67;;
56517;SDS011;42419;48.760;2.322;2023-01-23T10:40:17;6.03;;;5.40;;
56517;SDS011;42419;48.760;2.322;2023-01-23T10:43:19;4.80;;;4.40;;
56517;SDS011;42419;48.760;2.322;2023-01-23T10:45:46;4.97;;;4.57;;
56517;SDS011;42419;48.760;2.322;2023-01-23T10:50:56;6.23;;;5.33;;
56517;SDS011;42419;48.760;2.322;2023-01-23T10:53:22;5.87;;;5.43;;
56517;SDS011;42419;48.760;2.322;2023-01-23T10:55:49;5.17;;;4.77;;
56517;SDS011;42419;48.760;2.322;2023-01-23T11:01:01;5.33;;;4.83;;
56517;SDS011;42419;48.760;2.322;2023-01-23T11:03:34;5.43;;;5.00;;
56517;SDS011;42419;48.760;2.322;2023-01-23T11:08:32;4.70;;;4.30;;
56517;SDS011;42419;48.760;2.322;2023-01-23T11:13:44;5.83;;;5.23;;
56517;SDS011;42419;48.760;2.322;2023-01-23T11:16:15;4.97;;;4.57;;
56517;SDS011;42419;48.760;2.322;2023-01-23T11:18:45;6.30;;;5.50;;
56517;SDS011;42419;48.760;2.322;2023-01-23T11:21:19;11.30;;;6.40;;
56517;SDS011;42419;48.760;2.322;2023-01-23T11:24:06;10.00;;;6.90;;
56517;SDS011;42419;48.760;2.322;2023-01-23T11:26:34;7.63;;;6.83;;
56517;SDS011;42419;48.760;2.322;2023-01-23T11:29:01;10.00;;;6.40;;
56517;SDS011;42419;48.760;2.322;2023-01-23T11:31:27;9.73;;;6.73;;
56517;SDS011;42419;48.760;2.322;2023-01-23T11:41:40;6.83;;;6.20;;
56517;SDS011;42419;48.760;2.322;2023-01-23T11:44:12;5.40;;;4.90;;
56517;SDS011;42419;48.760;2.322;2023-01-23T11:49:44;6.00;;;5.50;;
56517;SDS011;42419;48.760;2.322;2023-01-23T12:03:25;12.97;;;11.67;;
56517;SDS011;42419;48.760;2.322;2023-01-23T12:08:43;13.20;;;11.90;;
56517;SDS011;42419;48.760;2.322;2023-01-23T12:11:12;12.47;;;11.17;;
56517;SDS011;42419;48.760;2.322;2023-01-23T12:24:57;17.00;;;15.37;;
56517;SDS011;42419;48.760;2.322;2023-01-23T12:27:45;13.87;;;12.57;;
56517;SDS011;42419;48.760;2.322;2023-01-23T12:32:52;12.77;;;11.67;;
56517;SDS011;42419;48.760;2.322;2023-01-23T12:42:00;11.73;;;10.70;;
56517;SDS011;42419;48.760;2.322;2023-01-23T12:44:03;11.40;;;10.30;;
56517;SDS011;42419;48.760;2.322;2023-01-23T12:46:42;9.93;;;9.03;;
56517;SDS011;42419;48.760;2.322;2023-01-23T12:51:46;10.23;;;9.30;;
56517;SDS011;42419;48.760;2.322;2023-01-23T12:54:18;9.73;;;8.93;;
56517;SDS011;42419;48.760;2.322;2023-01-23T12:56:55;8.63;;;7.83;;
56517;SDS011;42419;48.760;2.322;2023-01-23T12:59:24;8.87;;;8.17;;
56517;SDS011;42419;48.760;2.322;2023-01-23T13:02:08;9.00;;;8.23;;
56517;SDS011;42419;48.760;2.322;2023-01-23T13:07:23;8.93;;;8.10;;
56517;SDS011;42419;48.760;2.322;2023-01-23T13:12:52;7.73;;;7.13;;
56517;SDS011;42419;48.760;2.322;2023-01-23T13:15:21;8.03;;;7.23;;
56517;SDS011;42419;48.760;2.322;2023-01-23T13:20:17;7.47;;;6.80;;
56517;SDS011;42419;48.760;2.322;2023-01-23T13:28:54;7.80;;;7.07;;
56517;SDS011;42419;48.760;2.322;2023-01-23T13:34:02;6.20;;;5.70;;
56517;SDS011;42419;48.760;2.322;2023-01-23T13:36:49;6.27;;;5.67;;
56517;SDS011;42419;48.760;2.322;2023-01-23T13:41:41;6.13;;;5.63;;
56517;SDS011;42419;48.760;2.322;2023-01-23T13:52:39;6.00;;;5.50;;
56517;SDS011;42419;48.760;2.322;2023-01-23T13:55:28;6.77;;;6.20;;
56517;SDS011;42419;48.760;2.322;2023-01-23T13:58:22;6.40;;;5.90;;
56517;SDS011;42419;48.760;2.322;2023-01-23T14:00:52;6.13;;;5.57;;
56517;SDS011;42419;48.760;2.322;2023-01-23T14:03:45;5.87;;;5.37;;
56517;SDS011;42419;48.760;2.322;2023-01-23T14:06:34;6.27;;;5.67;;
56517;SDS011;42419;48.760;2.322;2023-01-23T14:09:01;5.30;;;4.90;;
56517;SDS011;42419;48.760;2.322;2023-01-23T14:11:45;6.13;;;5.60;;
56517;SDS011;42419;48.760;2.322;2023-01-23T14:14:10;5.53;;;5.10;;
56517;SDS011;42419;48.760;2.322;2023-01-23T14:16:54;5.10;;;4.70;;
56517;SDS011;42419;48.760;2.322;2023-01-23T14:19:47;5.10;;;4.70;;
56517;SDS011;42419;48.760;2.322;2023-01-23T14:22:30;5.63;;;5.13;;
56517;SDS011;42419;48.760;2.322;2023-01-23T14:24:56;5.70;;;5.20;;
56517;SDS011;42419;48.760;2.322;2023-01-23T14:27:35;7.77;;;5.30;;
56517;SDS011;42419;48.760;2.322;2023-01-23T14:32:55;5.20;;;4.73;;
56517;SDS011;42419;48.760;2.322;2023-01-23T14:35:27;4.90;;;4.50;;
56517;SDS011;42419;48.760;2.322;2023-01-23T14:38:15;5.30;;;4.90;;
56517;SDS011;42419;48.760;2.322;2023-01-23T14:40:53;5.07;;;4.60;;
56517;SDS011;42419;48.760;2.322;2023-01-23T14:43:19;5.53;;;4.67;;
56517;SDS011;42419;48.760;2.322;2023-01-23T14:45:48;6.47;;;4.80;;
56517;SDS011;42419;48.760;2.322;2023-01-23T14:48:20;5.80;;;4.40;;
56517;SDS011;42419;48.760;2.322;2023-01-23T14:50:46;6.20;;;4.23;;
56517;SDS011;42419;48.760;2.322;2023-01-23T14:53:13;7.77;;;4.53;;
56517;SDS011;42419;48.760;2.322;2023-01-23T14:55:40;9.90;;;4.63;;
56517;SDS011;42419;48.760;2.322;2023-01-23T14:58:13;5.70;;;4.60;;
56517;SDS011;42419;48.760;2.322;2023-01-23T15:00:45;7.47;;;4.57;;
56517;SDS011;42419;48.760;2.322;2023-01-23T15:03:12;6.90;;;4.37;;
56517;SDS011;42419;48.760;2.322;2023-01-23T15:05:58;4.70;;;4.13;;
56517;SDS011;42419;48.760;2.322;2023-01-23T15:08:28;7.20;;;4.90;;
56517;SDS011;42419;48.760;2.322;2023-01-23T15:10:57;4.97;;;4.57;;
56517;SDS011;42419;48.760;2.322;2023-01-23T15:13:34;4.53;;;4.13;;
56517;SDS011;42419;48.760;2.322;2023-01-23T15:16:04;5.17;;;4.67;;
56517;SDS011;42419;48.760;2.322;2023-01-23T15:18:34;4.93;;;4.30;;
56517;SDS011;42419;48.760;2.322;2023-01-23T15:21:01;4.97;;;4.30;;
56517;SDS011;42419;48.760;2.322;2023-01-23T15:23:34;4.50;;;4.10;;
56517;SDS011;42419;48.760;2.322;2023-01-23T15:28:59;4.97;;;4.47;;
56517;SDS011;42419;48.760;2.322;2023-01-23T15:36:48;5.00;;;4.17;;
56517;SDS011;42419;48.760;2.322;2023-01-23T15:39:25;4.97;;;4.57;;
56517;SDS011;42419;48.760;2.322;2023-01-23T15:42:00;4.50;;;4.10;;
56517;SDS011;42419;48.760;2.322;2023-01-23T15:44:27;6.93;;;4.07;;
56517;SDS011;42419;48.760;2.322;2023-01-23T15:46:54;3.90;;;3.60;;
56517;SDS011;42419;48.760;2.322;2023-01-23T15:49:20;5.00;;;4.30;;
56517;SDS011;42419;48.760;2.322;2023-01-23T15:51:46;6.03;;;4.37;;
56517;SDS011;42419;48.760;2.322;2023-01-23T15:54:17;4.37;;;3.93;;
56517;SDS011;42419;48.760;2.322;2023-01-23T15:56:45;6.13;;;4.50;;
56517;SDS011;42419;48.760;2.322;2023-01-23T15:59:12;5.50;;;4.57;;
56517;SDS011;42419;48.760;2.322;2023-01-23T16:01:39;4.30;;;3.90;;
56517;SDS011;42419;48.760;2.322;2023-01-23T16:04:04;5.27;;;3.93;;
56517;SDS011;42419;48.760;2.322;2023-01-23T16:06:29;5.10;;;4.20;;
56517;SDS011;42419;48.760;2.322;2023-01-23T16:08:55;4.17;;;3.87;;
56517;SDS011;42419;48.760;2.322;2023-01-23T16:11:20;5.00;;;4.60;;
56517;SDS011;42419;48.760;2.322;2023-01-23T16:13:45;5.20;;;4.20;;
56517;SDS011;42419;48.760;2.322;2023-01-23T16:16:14;4.70;;;4.30;;
56517;SDS011;42419;48.760;2.322;2023-01-23T16:18:42;4.50;;;4.10;;
56517;SDS011;42419;48.760;2.322;2023-01-23T16:21:13;4.80;;;4.27;;
56517;SDS011;42419;48.760;2.322;2023-01-23T16:23:41;4.80;;;4.07;;
56517;SDS011;42419;48.760;2.322;2023-01-23T16:26:11;5.57;;;4.63;;
56517;SDS011;42419;48.760;2.322;2023-01-23T16:28:43;5.07;;;4.00;;
56517;SDS011;42419;48.760;2.322;2023-01-23T16:31:10;4.10;;;3.80;;
56517;SDS011;42419;48.760;2.322;2023-01-23T16:33:37;4.77;;;4.37;;
56517;SDS011;42419;48.760;2.322;2023-01-23T16:36:02;4.50;;;4.00;;
56517;SDS011;42419;48.760;2.322;2023-01-23T16:38:29;4.33;;;3.90;;
56517;SDS011;42419;48.760;2.322;2023-01-23T16:40:55;4.90;;;4.10;;
56517;SDS011;42419;48.760;2.322;2023-01-23T16:43:23;4.37;;;3.97;;
56517;SDS011;42419;48.760;2.322;2023-01-23T16:45:49;4.07;;;3.77;;
56517;SDS011;42419;48.760;2.322;2023-01-23T16:48:15;3.20;;;3.00;;
56517;SDS011;42419;48.760;2.322;2023-01-23T16:50:42;6.90;;;4.10;;
56517;SDS011;42419;48.760;2.322;2023-01-23T16:53:24;4.27;;;3.87;;
56517;SDS011;42419;48.760;2.322;2023-01-23T16:55:52;3.70;;;3.40;;